Orient Hill, West Virginia
Current Conditions -  °F | °C
As of 3:15 PM on Wednesday 28 Jan 2015 (Local Time) from KLWB Reporting Station
Clear Clear  
Wind Chill: 35°   Ceiling: Unl
Heat Index: 35°   Visibility: 10mi
Dew Point: 13°   Wind: 3mph
Humidity: 41%   Direction: 270°W
Pressure: 30.19"   Gusts: NA
Location:  37.9921°N, 80.6788°W
Report Text: KLWB 282015Z AUTO 27003KT 10SM CLR 02/M11 A3019 RMK AO2 T00151106
Loading
Personal Weather Stations






























Interactive Weather Map New forecast layout! Learn more

10-Day Weather Forecast

Advertisements
Track Severe Weather on mobile